Time;durP1;ratioP1;P1;durP2;ratioP2;P2;SDS_P1;SDS_P2;PMS_P1;PMS_P2;Temp;Humidity;BMP_temperature;BMP_pressure;BME280_temperature;BME280_humidity;BME280_pressure;Samples;Min_cycle;Max_cycle;Signal;HPM_P1;HPM_P2
2022/11/03 00:01:06;;;;;;;;;;;10.70;99.90;;;;;;4952369;28;19925;-75
2022/11/03 00:03:32;;;;;;;;;;;10.70;99.90;;;;;;4953060;28;19921;-75
2022/11/03 00:06:03;;;;;;;;;;;10.60;99.90;;;;;;4952805;28;19910;-75
2022/11/03 00:08:36;;;;;;;;;;;10.60;99.90;;;;;;4952529;28;19915;-75
2022/11/03 00:11:13;;;;;;;;;;;10.70;99.90;;;;;;4952890;28;19961;-76
2022/11/03 00:13:42;;;;;;;;;;;10.60;99.90;;;;;;4953997;28;20013;-74
2022/11/03 00:16:09;;;;;;;;;;;10.50;99.90;;;;;;4952912;28;19922;-74
2022/11/03 00:18:35;;;;;;;;;;;10.50;99.90;;;;;;4968351;28;19911;-74
2022/11/03 00:21:07;;;;;;;;;;;10.40;99.90;;;;;;4966696;28;20280;-75
2022/11/03 00:23:34;;;;;;;;;;;10.40;99.90;;;;;;4952557;28;20284;-75
2022/11/03 00:26:03;;;;;;;;;;;10.40;99.90;;;;;;4952435;28;19942;-75
2022/11/03 00:28:33;;;;;;;;;;;10.40;99.90;;;;;;4953490;28;19918;-75
2022/11/03 00:31:05;;;;;;;;;;;10.40;99.90;;;;;;4951671;28;19910;-74
2022/11/03 00:33:33;;;;;;;;;;;10.40;99.90;;;;;;4952491;28;19960;-74
2022/11/03 00:36:01;;;;;;;;;;;10.30;99.90;;;;;;4974485;28;19921;-75
2022/11/03 00:38:28;;;;;;;;;;;10.40;99.90;;;;;;4951775;28;19978;-74
2022/11/03 00:40:57;;;;;;;;;;;10.30;99.90;;;;;;4976025;28;20014;-75
2022/11/03 00:43:23;;;;;;;;;;;10.30;99.90;;;;;;4952662;28;19911;-75
2022/11/03 00:46:00;;;;;;;;;;;10.30;99.90;;;;;;4953919;28;19986;-74
2022/11/03 00:48:28;;;;;;;;;;;10.30;99.90;;;;;;4952671;28;19910;-75
2022/11/03 00:50:54;;;;;;;;;;;10.30;99.90;;;;;;4952457;28;19914;-75
2022/11/03 00:53:19;;;;;;;;;;;10.30;99.90;;;;;;4966794;28;19910;-75
2022/11/03 00:55:51;;;;;;;;;;;10.40;99.90;;;;;;4974312;28;19914;-75
2022/11/03 00:58:16;;;;;;;;;;;10.40;99.90;;;;;;4966871;28;20045;-74
2022/11/03 01:00:42;;;;;;;;;;;10.30;99.90;;;;;;4966982;28;20005;-75
2022/11/03 01:03:07;;;;;;;;;;;10.40;99.90;;;;;;4973501;28;19935;-75
2022/11/03 01:08:17;;;;;;;;;;;10.40;99.90;;;;;;4951305;28;19930;-75
2022/11/03 01:13:30;;;;;;;;;;;10.50;99.90;;;;;;4951895;28;19917;-75
2022/11/03 01:15:57;;;;;;;;;;;10.50;99.90;;;;;;4951704;28;19910;-74
2022/11/03 01:18:24;;;;;;;;;;;10.50;99.90;;;;;;4951675;28;19915;-74
2022/11/03 01:20:56;;;;;;;;;;;10.50;99.90;;;;;;4952006;28;20764;-74
2022/11/03 01:23:26;;;;;;;;;;;10.50;99.90;;;;;;4966598;28;19922;-75
2022/11/03 01:25:51;;;;;;;;;;;10.50;99.90;;;;;;4952445;28;20053;-74
2022/11/03 01:28:17;;;;;;;;;;;10.50;99.90;;;;;;4951104;28;20017;-75
2022/11/03 01:30:44;;;;;;;;;;;10.40;99.90;;;;;;4973530;28;19915;-75
2022/11/03 01:33:10;;;;;;;;;;;10.40;99.90;;;;;;4951034;28;20311;-75
2022/11/03 01:35:35;;;;;;;;;;;10.40;99.90;;;;;;4966659;28;19933;-75
2022/11/03 01:38:02;;;;;;;;;;;10.40;99.90;;;;;;4951139;28;19958;-75
2022/11/03 01:40:37;;;;;;;;;;;10.40;99.90;;;;;;4973611;28;19949;-76
2022/11/03 01:43:22;;;;;;;;;;;10.40;99.90;;;;;;4949800;28;19910;-75
2022/11/03 01:45:50;;;;;;;;;;;10.40;99.90;;;;;;4966209;28;19948;-74
2022/11/03 01:48:18;;;;;;;;;;;10.40;99.90;;;;;;4952058;28;19914;-75
2022/11/03 01:50:45;;;;;;;;;;;10.40;99.90;;;;;;4954143;28;19917;-75
2022/11/03 01:53:11;;;;;;;;;;;10.30;99.90;;;;;;4951355;28;19911;-74
2022/11/03 01:55:40;;;;;;;;;;;10.30;99.90;;;;;;4950978;28;20009;-75
2022/11/03 01:58:17;;;;;;;;;;;10.30;99.90;;;;;;4951066;28;20589;-74
2022/11/03 02:00:45;;;;;;;;;;;10.30;99.90;;;;;;4950944;28;20328;-75
2022/11/03 02:03:10;;;;;;;;;;;10.30;99.90;;;;;;4950773;28;19911;-74
2022/11/03 02:05:39;;;;;;;;;;;10.30;99.90;;;;;;4950717;28;20467;-74
2022/11/03 02:08:08;;;;;;;;;;;10.30;99.90;;;;;;4965390;28;19935;-74
2022/11/03 02:10:50;;;;;;;;;;;10.40;99.90;;;;;;4950083;28;20010;-74
2022/11/03 02:13:20;;;;;;;;;;;10.30;99.90;;;;;;4965179;28;19914;-75
2022/11/03 02:15:47;;;;;;;;;;;10.30;99.90;;;;;;4952611;28;20360;-75
2022/11/03 02:18:15;;;;;;;;;;;10.30;99.90;;;;;;4950712;28;19911;-74
2022/11/03 02:20:41;;;;;;;;;;;10.30;99.90;;;;;;4966059;28;19946;-75
2022/11/03 02:23:15;;;;;;;;;;;10.30;99.90;;;;;;4950171;28;19976;-75
2022/11/03 02:25:42;;;;;;;;;;;10.20;99.90;;;;;;4972495;28;20787;-74
2022/11/03 02:28:08;;;;;;;;;;;10.20;99.90;;;;;;4965055;28;19922;-75
2022/11/03 02:30:38;;;;;;;;;;;10.20;99.90;;;;;;4950674;28;19930;-75
2022/11/03 02:33:12;;;;;;;;;;;10.20;99.90;;;;;;4970836;28;20582;-74
2022/11/03 02:35:41;;;;;;;;;;;10.30;99.90;;;;;;4950763;28;19965;-75
2022/11/03 02:38:09;;;;;;;;;;;10.20;99.90;;;;;;4949919;28;19922;-75
2022/11/03 02:40:40;;;;;;;;;;;10.20;99.90;;;;;;4964212;28;19918;-75
2022/11/03 02:43:09;;;;;;;;;;;10.20;99.90;;;;;;4950403;28;19965;-75
2022/11/03 02:45:36;;;;;;;;;;;10.10;99.90;;;;;;4949710;28;20343;-74
2022/11/03 02:48:08;;;;;;;;;;;10.00;99.90;;;;;;4950953;28;19933;-74
2022/11/03 02:50:34;;;;;;;;;;;9.90;99.90;;;;;;4949769;28;19965;-74
2022/11/03 02:53:00;;;;;;;;;;;9.80;99.90;;;;;;4950673;28;20355;-75
2022/11/03 02:55:44;;;;;;;;;;;9.80;99.90;;;;;;4950082;28;20356;-75
2022/11/03 02:58:19;;;;;;;;;;;9.80;99.90;;;;;;4973674;28;19918;-74
2022/11/03 03:00:52;;;;;;;;;;;9.70;99.90;;;;;;4971412;28;20010;-74
2022/11/03 03:03:20;;;;;;;;;;;9.60;99.90;;;;;;4949843;28;20009;-74
2022/11/03 03:05:48;;;;;;;;;;;9.60;99.90;;;;;;4949177;28;20307;-74
2022/11/03 03:08:14;;;;;;;;;;;9.70;99.90;;;;;;4949971;28;19911;-75
2022/11/03 03:10:45;;;;;;;;;;;9.80;99.90;;;;;;4963862;28;19921;-74
2022/11/03 03:13:12;;;;;;;;;;;9.90;99.90;;;;;;4949142;28;19911;-75
2022/11/03 03:15:57;;;;;;;;;;;9.90;99.90;;;;;;4964583;28;19918;-74
2022/11/03 03:18:22;;;;;;;;;;;10.00;99.90;;;;;;4974156;28;19916;-75
2022/11/03 03:20:50;;;;;;;;;;;10.00;99.90;;;;;;4949135;28;19922;-75
2022/11/03 03:23:17;;;;;;;;;;;10.10;99.90;;;;;;4971403;28;19918;-74
2022/11/03 03:25:52;;;;;;;;;;;10.10;99.90;;;;;;4947987;28;19922;-75
2022/11/03 03:28:21;;;;;;;;;;;10.10;99.90;;;;;;4949399;28;19942;-74
2022/11/03 03:30:47;;;;;;;;;;;10.10;99.90;;;;;;4948080;28;19988;-74
2022/11/03 03:33:15;;;;;;;;;;;10.20;99.90;;;;;;4949805;28;19953;-75
2022/11/03 03:35:43;;;;;;;;;;;10.10;99.90;;;;;;4949620;28;19997;-74
2022/11/03 03:38:18;;;;;;;;;;;10.10;99.90;;;;;;4950046;28;19922;-75
2022/11/03 03:40:46;;;;;;;;;;;10.10;99.90;;;;;;4964052;28;19946;-74
2022/11/03 03:43:15;;;;;;;;;;;10.20;99.90;;;;;;4952058;28;19958;-75
2022/11/03 03:45:42;;;;;;;;;;;10.20;99.90;;;;;;4949457;28;19970;-74
2022/11/03 03:48:08;;;;;;;;;;;10.20;99.90;;;;;;4950628;28;19926;-75
2022/11/03 03:50:36;;;;;;;;;;;10.20;99.90;;;;;;4964187;28;19911;-74
2022/11/03 03:53:03;;;;;;;;;;;10.30;99.90;;;;;;4965618;28;19915;-75
2022/11/03 03:55:33;;;;;;;;;;;10.30;99.90;;;;;;4964548;28;20682;-75
2022/11/03 03:57:59;;;;;;;;;;;10.20;99.90;;;;;;4951949;28;20391;-74
2022/11/03 04:00:24;;;;;;;;;;;10.20;99.90;;;;;;4949633;28;19911;-74
2022/11/03 04:02:50;;;;;;;;;;;10.20;99.90;;;;;;4951197;28;20005;-75
2022/11/03 04:05:16;;;;;;;;;;;10.10;99.90;;;;;;4963670;28;19918;-74
2022/11/03 04:07:48;;;;;;;;;;;10.10;99.90;;;;;;4966797;28;19918;-74
2022/11/03 04:10:15;;;;;;;;;;;10.10;99.90;;;;;;4951489;28;19919;-75
2022/11/03 04:22:15;;;;;;;;;;;10.00;99.90;;;;;;4949779;28;19925;-75
2022/11/03 04:23:59;;;;;;;;;;;9.90;99.90;;;;;;4949694;28;19949;-74
2022/11/03 04:26:26;;;;;;;;;;;9.80;99.90;;;;;;4963637;28;19918;-75
2022/11/03 04:28:51;;;;;;;;;;;9.80;99.90;;;;;;4949742;28;19914;-75
2022/11/03 04:31:18;;;;;;;;;;;9.80;99.90;;;;;;4949383;28;19926;-74
2022/11/03 04:33:44;;;;;;;;;;;9.80;99.90;;;;;;4965856;28;19911;-75
2022/11/03 04:36:15;;;;;;;;;;;9.80;99.90;;;;;;4948742;28;19966;-74
2022/11/03 04:38:50;;;;;;;;;;;9.80;99.90;;;;;;4953292;28;19914;-75
2022/11/03 04:41:17;;;;;;;;;;;9.90;99.90;;;;;;4953969;28;19910;-74
2022/11/03 04:43:45;;;;;;;;;;;10.00;99.90;;;;;;4954387;28;20387;-75
2022/11/03 04:46:14;;;;;;;;;;;10.00;99.90;;;;;;4953067;28;19910;-75
2022/11/03 04:48:40;;;;;;;;;;;10.10;99.90;;;;;;4953144;28;20660;-75
2022/11/03 04:51:21;;;;;;;;;;;10.10;99.90;;;;;;4968063;28;19915;-75
2022/11/03 04:53:48;;;;;;;;;;;10.10;99.90;;;;;;4953898;28;19968;-75
2022/11/03 04:56:19;;;;;;;;;;;10.20;99.90;;;;;;4951677;28;19966;-75
2022/11/03 04:58:47;;;;;;;;;;;10.20;99.90;;;;;;4953357;28;19911;-75
2022/11/03 05:01:16;;;;;;;;;;;10.20;99.90;;;;;;4952042;28;19933;-75
2022/11/03 05:03:42;;;;;;;;;;;10.20;99.90;;;;;;4952562;28;20376;-75
2022/11/03 05:06:15;;;;;;;;;;;10.20;99.90;;;;;;4951645;28;19933;-76
2022/11/03 05:08:43;;;;;;;;;;;10.30;99.90;;;;;;4952874;28;19914;-75
2022/11/03 05:11:20;;;;;;;;;;;10.30;99.90;;;;;;4951448;28;19937;-75
2022/11/03 05:13:46;;;;;;;;;;;10.30;99.90;;;;;;4954008;28;19957;-75
2022/11/03 05:16:11;;;;;;;;;;;10.30;99.90;;;;;;4973854;28;19950;-74
2022/11/03 05:18:44;;;;;;;;;;;10.30;99.90;;;;;;4953189;28;19918;-74
2022/11/03 05:21:14;;;;;;;;;;;10.30;99.90;;;;;;4951134;28;19915;-75
2022/11/03 05:23:43;;;;;;;;;;;10.30;99.90;;;;;;4950807;28;19919;-75
2022/11/03 05:26:25;;;;;;;;;;;10.40;99.90;;;;;;4950329;28;19933;-75
2022/11/03 05:28:58;;;;;;;;;;;10.30;99.90;;;;;;4952186;28;20027;-75
2022/11/03 05:31:31;;;;;;;;;;;10.30;99.90;;;;;;4963561;28;20067;-74
2022/11/03 05:34:01;;;;;;;;;;;10.30;99.90;;;;;;4971373;28;20005;-74
2022/11/03 05:36:29;;;;;;;;;;;10.40;99.90;;;;;;4948628;28;20320;-74
2022/11/03 05:39:11;;;;;;;;;;;10.30;99.90;;;;;;4952615;28;19922;-74
2022/11/03 05:41:37;;;;;;;;;;;10.40;99.90;;;;;;4964526;28;19925;-75
2022/11/03 05:44:13;;;;;;;;;;;10.50;99.90;;;;;;4966676;28;20291;-75
2022/11/03 05:46:39;;;;;;;;;;;10.40;99.90;;;;;;4950397;28;19970;-74
2022/11/03 05:49:05;;;;;;;;;;;10.50;99.90;;;;;;4951029;28;19993;-75
2022/11/03 05:51:38;;;;;;;;;;;10.50;99.90;;;;;;4949735;28;20005;-74
2022/11/03 05:54:11;;;;;;;;;;;10.50;99.90;;;;;;4971578;28;19997;-75
2022/11/03 05:56:37;;;;;;;;;;;10.50;99.90;;;;;;4950385;28;19923;-75
2022/11/03 05:59:03;;;;;;;;;;;10.50;99.90;;;;;;4966022;28;20285;-76
2022/11/03 06:01:30;;;;;;;;;;;10.50;99.90;;;;;;4964427;28;19940;-75
2022/11/03 06:03:58;;;;;;;;;;;10.70;99.90;;;;;;4951054;28;19915;-75
2022/11/03 06:06:26;;;;;;;;;;;10.70;99.90;;;;;;4950785;28;19915;-74
2022/11/03 06:08:52;;;;;;;;;;;10.80;99.90;;;;;;4970588;28;20368;-78
2022/11/03 06:11:36;;;;;;;;;;;10.80;99.90;;;;;;4966279;28;19926;-78
2022/11/03 06:14:08;;;;;;;;;;;10.80;99.90;;;;;;4948549;28;19915;-76
2022/11/03 06:16:46;;;;;;;;;;;10.90;99.90;;;;;;4949650;28;20412;-77
2022/11/03 06:19:20;;;;;;;;;;;10.90;99.90;;;;;;4972770;28;19911;-75
2022/11/03 06:21:53;;;;;;;;;;;10.90;99.90;;;;;;4948845;28;19918;-75
2022/11/03 06:24:20;;;;;;;;;;;10.90;99.90;;;;;;4949652;28;20029;-75
2022/11/03 06:26:46;;;;;;;;;;;10.90;99.90;;;;;;4965145;28;19973;-75
2022/11/03 06:29:14;;;;;;;;;;;11.00;99.90;;;;;;4964655;28;19990;-75
2022/11/03 06:31:47;;;;;;;;;;;11.10;99.90;;;;;;4949205;28;19942;-75
2022/11/03 06:34:31;;;;;;;;;;;11.10;99.90;;;;;;4949724;28;20356;-75
2022/11/03 06:36:58;;;;;;;;;;;11.20;99.90;;;;;;4970576;28;19949;-75
2022/11/03 06:39:23;;;;;;;;;;;11.30;99.90;;;;;;4965105;28;19910;-75
2022/11/03 06:41:49;;;;;;;;;;;11.30;99.90;;;;;;4951592;28;19918;-75
2022/11/03 06:44:18;;;;;;;;;;;11.30;99.90;;;;;;4965130;28;19919;-74
2022/11/03 06:46:44;;;;;;;;;;;11.40;99.90;;;;;;4974432;28;19910;-74
2022/11/03 06:49:24;;;;;;;;;;;11.30;99.90;;;;;;4949383;28;20201;-75
2022/11/03 06:51:49;;;;;;;;;;;11.30;99.90;;;;;;4949863;28;19930;-75
2022/11/03 06:54:15;;;;;;;;;;;11.40;99.90;;;;;;4948202;28;19915;-75
2022/11/03 06:56:41;;;;;;;;;;;11.50;99.90;;;;;;4946382;28;20001;-75
2022/11/03 06:59:08;;;;;;;;;;;11.50;99.90;;;;;;4948850;28;20409;-75
2022/11/03 07:01:34;;;;;;;;;;;11.50;99.90;;;;;;4971802;28;19911;-75
2022/11/03 07:04:04;;;;;;;;;;;11.60;99.90;;;;;;4949523;28;20398;-76
2022/11/03 07:06:30;;;;;;;;;;;11.70;99.90;;;;;;4949606;28;20027;-78
2022/11/03 07:08:59;;;;;;;;;;;11.80;99.90;;;;;;4964815;28;19926;-75
2022/11/03 07:11:26;;;;;;;;;;;11.90;99.90;;;;;;4965712;28;19910;-75
2022/11/03 07:13:57;;;;;;;;;;;11.90;99.90;;;;;;4949781;28;19914;-75
2022/11/03 07:16:36;;;;;;;;;;;12.00;99.90;;;;;;4950547;28;19969;-75
2022/11/03 07:19:07;;;;;;;;;;;12.00;99.90;;;;;;4949031;28;20602;-75
2022/11/03 07:21:33;;;;;;;;;;;12.10;99.90;;;;;;4948233;28;19941;-75
2022/11/03 07:24:04;;;;;;;;;;;12.20;99.90;;;;;;4948826;28;19915;-75
2022/11/03 07:26:31;;;;;;;;;;;12.20;99.90;;;;;;4949203;28;20414;-76
2022/11/03 07:28:58;;;;;;;;;;;12.20;99.90;;;;;;4949259;28;19942;-74
2022/11/03 07:31:24;;;;;;;;;;;12.50;99.90;;;;;;4963915;28;20249;-75
2022/11/03 07:34:04;;;;;;;;;;;12.60;99.90;;;;;;4948512;28;19922;-75
2022/11/03 07:36:30;;;;;;;;;;;12.70;99.90;;;;;;4947820;28;20034;-75
2022/11/03 07:38:58;;;;;;;;;;;12.70;99.90;;;;;;4949278;28;20010;-75
2022/11/03 07:41:27;;;;;;;;;;;12.80;99.90;;;;;;4950872;28;19915;-75
2022/11/03 07:43:57;;;;;;;;;;;13.00;99.90;;;;;;4948741;28;19922;-76
2022/11/03 07:46:23;;;;;;;;;;;13.00;99.90;;;;;;4951616;28;19988;-76
2022/11/03 07:48:50;;;;;;;;;;;12.90;99.90;;;;;;4974004;28;20547;-76
2022/11/03 07:51:22;;;;;;;;;;;12.70;99.90;;;;;;4949458;28;19914;-75
2022/11/03 07:53:49;;;;;;;;;;;12.70;99.90;;;;;;4949102;28;19972;-75
2022/11/03 07:56:14;;;;;;;;;;;12.70;99.90;;;;;;4948993;28;19921;-76
2022/11/03 07:58:40;;;;;;;;;;;12.80;99.90;;;;;;4971464;28;19915;-79
2022/11/03 08:01:32;;;;;;;;;;;12.80;99.90;;;;;;4949201;28;19918;-75
2022/11/03 08:03:59;;;;;;;;;;;13.00;99.90;;;;;;4948555;28;19914;-75
2022/11/03 08:06:27;;;;;;;;;;;13.30;99.90;;;;;;4949290;28;19946;-74
2022/11/03 08:08:56;;;;;;;;;;;13.40;99.90;;;;;;4972669;28;19957;-76
2022/11/03 08:11:23;;;;;;;;;;;13.70;99.90;;;;;;4973339;28;19918;-75
2022/11/03 08:13:49;;;;;;;;;;;14.30;99.90;;;;;;4952009;28;20459;-74
2022/11/03 08:16:14;;;;;;;;;;;15.50;99.90;;;;;;4954487;28;19914;-75
2022/11/03 08:18:40;;;;;;;;;;;16.80;99.90;;;;;;4952381;28;20751;-75
2022/11/03 08:21:05;;;;;;;;;;;18.30;99.90;;;;;;4967049;28;20047;-75
2022/11/03 08:23:33;;;;;;;;;;;19.50;99.30;;;;;;4970887;28;20547;-76
2022/11/03 08:25:58;;;;;;;;;;;20.30;96.40;;;;;;4972979;28;19918;-75
2022/11/03 08:28:24;;;;;;;;;;;21.10;95.50;;;;;;4968150;28;20500;-75
2022/11/03 08:30:52;;;;;;;;;;;21.70;92.40;;;;;;4973997;28;19923;-75
2022/11/03 08:33:17;;;;;;;;;;;22.50;90.40;;;;;;4953722;28;19925;-75
2022/11/03 08:35:43;;;;;;;;;;;23.70;85.70;;;;;;4952823;28;19910;-75
2022/11/03 08:38:08;;;;;;;;;;;24.20;82.00;;;;;;4951602;28;19910;-75
2022/11/03 08:40:35;;;;;;;;;;;24.70;77.90;;;;;;4966098;28;19960;-75
2022/11/03 08:43:01;;;;;;;;;;;23.70;78.50;;;;;;4952735;28;19910;-75
2022/11/03 08:45:29;;;;;;;;;;;23.30;79.10;;;;;;4965524;28;19926;-75
2022/11/03 08:47:55;;;;;;;;;;;23.80;78.20;;;;;;4950441;28;19915;-76
2022/11/03 08:50:20;;;;;;;;;;;24.30;76.00;;;;;;4951782;28;19957;-75
2022/11/03 08:52:46;;;;;;;;;;;24.90;73.70;;;;;;4966856;28;20492;-75
2022/11/03 08:55:15;;;;;;;;;;;24.50;74.00;;;;;;4966771;28;19917;-75
2022/11/03 08:57:40;;;;;;;;;;;25.20;72.40;;;;;;4951837;28;19911;-75
2022/11/03 09:00:06;;;;;;;;;;;25.00;72.00;;;;;;4951476;28;21486;-75
2022/11/03 09:02:32;;;;;;;;;;;24.30;72.80;;;;;;4967339;28;20381;-74
2022/11/03 09:04:58;;;;;;;;;;;22.20;77.40;;;;;;4950657;28;19918;-74
2022/11/03 09:07:24;;;;;;;;;;;22.80;78.20;;;;;;4951911;28;19918;-75
2022/11/03 09:09:49;;;;;;;;;;;23.50;76.80;;;;;;4950880;28;19966;-75
2022/11/03 09:12:16;;;;;;;;;;;25.00;74.30;;;;;;4953855;28;19918;-75
2022/11/03 09:14:41;;;;;;;;;;;26.30;71.70;;;;;;4952111;28;20708;-78
2022/11/03 09:17:07;;;;;;;;;;;26.00;70.00;;;;;;4951828;28;19914;-75
2022/11/03 09:19:32;;;;;;;;;;;24.60;72.90;;;;;;4952718;28;19914;-75
2022/11/03 09:21:59;;;;;;;;;;;25.60;71.00;;;;;;4950834;28;19957;-75
2022/11/03 09:24:25;;;;;;;;;;;25.80;69.20;;;;;;4973283;28;20001;-74
2022/11/03 09:26:50;;;;;;;;;;;25.20;68.40;;;;;;4951457;28;19922;-75
2022/11/03 09:29:18;;;;;;;;;;;25.20;67.60;;;;;;4951762;28;19914;-75
2022/11/03 09:31:44;;;;;;;;;;;23.60;70.70;;;;;;4969083;28;19921;-75
2022/11/03 09:34:09;;;;;;;;;;;23.80;70.80;;;;;;4951480;28;20707;-75
2022/11/03 09:36:35;;;;;;;;;;;24.70;70.10;;;;;;4975126;28;19918;-75
2022/11/03 09:39:00;;;;;;;;;;;23.60;70.80;;;;;;4952144;28;19910;-75
2022/11/03 09:41:26;;;;;;;;;;;23.90;70.60;;;;;;4971293;28;19915;-75
2022/11/03 09:43:55;;;;;;;;;;;23.50;72.00;;;;;;4969065;28;19919;-75
2022/11/03 09:46:20;;;;;;;;;;;24.60;69.90;;;;;;4951278;28;20076;-75
2022/11/03 09:48:46;;;;;;;;;;;24.20;70.20;;;;;;4952827;28;20691;-75
2022/11/03 09:51:16;;;;;;;;;;;23.60;70.90;;;;;;4965858;28;20632;-75
2022/11/03 09:53:41;;;;;;;;;;;23.70;70.90;;;;;;4951853;28;19911;-75
2022/11/03 09:56:08;;;;;;;;;;;23.50;71.20;;;;;;4965696;28;19945;-74
2022/11/03 09:58:34;;;;;;;;;;;22.70;72.40;;;;;;4966273;28;19971;-74
2022/11/03 10:01:00;;;;;;;;;;;21.80;74.90;;;;;;4950008;28;20684;-75
2022/11/03 10:03:25;;;;;;;;;;;20.40;78.60;;;;;;4952016;28;19910;-75
2022/11/03 10:05:51;;;;;;;;;;;21.30;77.00;;;;;;4950298;28;19914;-75
2022/11/03 10:08:16;;;;;;;;;;;22.80;73.30;;;;;;4950632;28;21288;-74
2022/11/03 10:10:42;;;;;;;;;;;22.10;74.00;;;;;;4972284;28;19973;-75
2022/11/03 10:13:24;;;;;;;;;;;22.50;74.60;;;;;;4951707;28;19925;-75
2022/11/03 10:15:49;;;;;;;;;;;23.50;72.20;;;;;;4972514;28;19918;-74
2022/11/03 10:18:17;;;;;;;;;;;23.70;70.80;;;;;;4951639;28;19915;-75
2022/11/03 10:20:43;;;;;;;;;;;22.70;73.10;;;;;;4964949;28;19914;-75
2022/11/03 10:23:14;;;;;;;;;;;23.10;72.70;;;;;;4949972;28;19910;-75
2022/11/03 10:25:40;;;;;;;;;;;22.40;72.60;;;;;;4974143;28;19922;-75
2022/11/03 10:28:16;;;;;;;;;;;21.30;76.10;;;;;;4965078;28;19914;-75
2022/11/03 10:30:56;;;;;;;;;;;21.40;75.90;;;;;;4964458;28;20080;-75
2022/11/03 10:33:26;;;;;;;;;;;21.30;76.80;;;;;;4964760;28;19922;-75
2022/11/03 10:35:52;;;;;;;;;;;21.70;76.20;;;;;;4949403;28;19910;-75
2022/11/03 10:38:21;;;;;;;;;;;22.50;75.00;;;;;;4949882;28;20608;-75
2022/11/03 10:40:46;;;;;;;;;;;23.70;72.50;;;;;;4971685;28;19922;-75
2022/11/03 10:43:12;;;;;;;;;;;24.40;70.90;;;;;;4974725;28;20319;-75
2022/11/03 10:45:37;;;;;;;;;;;23.50;71.00;;;;;;4951759;28;19953;-75
2022/11/03 10:48:07;;;;;;;;;;;21.80;74.70;;;;;;4949752;28;19911;-75
2022/11/03 10:50:33;;;;;;;;;;;19.80;79.70;;;;;;4949112;28;19910;-74
2022/11/03 10:52:59;;;;;;;;;;;19.20;83.50;;;;;;4964292;28;19917;-74
2022/11/03 10:55:25;;;;;;;;;;;18.60;85.60;;;;;;4968226;28;19910;-75
2022/11/03 10:57:51;;;;;;;;;;;18.50;86.90;;;;;;4949003;28;19922;-75
2022/11/03 11:00:18;;;;;;;;;;;18.20;88.50;;;;;;4964432;28;19925;-74
2022/11/03 11:02:44;;;;;;;;;;;18.20;89.70;;;;;;4948531;28;19911;-74
2022/11/03 11:05:13;;;;;;;;;;;18.20;90.40;;;;;;4965334;28;19918;-75
2022/11/03 11:07:40;;;;;;;;;;;17.90;90.70;;;;;;4949647;28;20005;-75
2022/11/03 11:10:07;;;;;;;;;;;17.80;91.40;;;;;;4964851;28;19961;-75
2022/11/03 11:12:32;;;;;;;;;;;17.80;91.90;;;;;;4972042;28;19930;-75
2022/11/03 11:14:59;;;;;;;;;;;17.70;92.60;;;;;;4965612;28;19915;-75
2022/11/03 11:17:38;;;;;;;;;;;17.70;93.20;;;;;;4948035;28;19921;-75
2022/11/03 11:20:22;;;;;;;;;;;17.60;93.60;;;;;;4969393;28;19911;-75
2022/11/03 11:22:52;;;;;;;;;;;17.50;94.40;;;;;;4972902;28;19918;-75
2022/11/03 11:25:18;;;;;;;;;;;17.60;94.80;;;;;;4964377;28;20423;-75
2022/11/03 11:27:43;;;;;;;;;;;17.60;95.10;;;;;;4949623;28;19918;-74
2022/11/03 11:30:31;;;;;;;;;;;17.60;95.50;;;;;;4966643;28;19914;-75
2022/11/03 11:32:59;;;;;;;;;;;17.50;95.80;;;;;;4947075;28;19915;-75
2022/11/03 11:35:25;;;;;;;;;;;17.30;96.60;;;;;;4965173;28;20005;-75
2022/11/03 11:38:17;;;;;;;;;;;17.30;96.90;;;;;;4973413;28;19911;-75
2022/11/03 11:40:49;;;;;;;;;;;17.30;97.10;;;;;;4948395;28;19919;-74
2022/11/03 11:43:19;;;;;;;;;;;17.30;97.10;;;;;;4949257;28;20364;-74
2022/11/03 11:46:03;;;;;;;;;;;17.50;97.20;;;;;;4951480;28;20002;-75
2022/11/03 11:48:28;;;;;;;;;;;17.60;97.10;;;;;;4978553;28;19920;-75
2022/11/03 11:50:55;;;;;;;;;;;17.70;96.90;;;;;;4957061;28;19993;-74
2022/11/03 11:53:21;;;;;;;;;;;17.80;96.80;;;;;;4955260;28;19933;-74
2022/11/03 11:55:57;;;;;;;;;;;17.80;96.80;;;;;;4971007;28;19918;-75
2022/11/03 11:58:25;;;;;;;;;;;17.90;97.20;;;;;;4953644;28;20552;-74
2022/11/03 12:00:52;;;;;;;;;;;18.00;96.70;;;;;;4969675;28;19914;-74
2022/11/03 12:03:22;;;;;;;;;;;17.90;96.40;;;;;;4969642;28;19919;-75
2022/11/03 12:05:49;;;;;;;;;;;17.80;96.10;;;;;;4954850;28;19930;-76
2022/11/03 12:08:18;;;;;;;;;;;17.90;95.80;;;;;;4953321;28;20731;-75
2022/11/03 12:10:51;;;;;;;;;;;18.00;95.60;;;;;;4968750;28;19914;-74
2022/11/03 12:13:35;;;;;;;;;;;18.10;95.50;;;;;;4954629;28;19929;-75
2022/11/03 12:16:02;;;;;;;;;;;18.20;95.10;;;;;;4955678;28;19918;-75
2022/11/03 12:18:38;;;;;;;;;;;18.10;94.70;;;;;;4970046;28;19930;-75
2022/11/03 12:21:08;;;;;;;;;;;18.10;94.90;;;;;;4969780;28;19911;-75
2022/11/03 12:23:35;;;;;;;;;;;18.00;94.70;;;;;;4954984;28;19911;-74
2022/11/03 12:26:18;;;;;;;;;;;18.00;94.60;;;;;;4955306;28;19926;-74
2022/11/03 12:28:43;;;;;;;;;;;18.00;94.80;;;;;;4954821;28;20030;-75
2022/11/03 12:31:09;;;;;;;;;;;18.00;94.80;;;;;;4955017;28;20389;-75
2022/11/03 12:33:34;;;;;;;;;;;17.90;94.70;;;;;;4954891;28;19914;-75
2022/11/03 12:36:00;;;;;;;;;;;17.80;95.20;;;;;;4970368;28;19914;-74
2022/11/03 12:38:25;;;;;;;;;;;17.80;95.20;;;;;;4955011;28;19910;-75
2022/11/03 12:40:52;;;;;;;;;;;17.80;95.40;;;;;;4969346;28;19937;-75
2022/11/03 12:43:18;;;;;;;;;;;17.90;95.40;;;;;;4970214;28;19919;-75
2022/11/03 12:45:43;;;;;;;;;;;17.90;95.40;;;;;;4955661;28;20411;-74
2022/11/03 12:48:09;;;;;;;;;;;17.70;95.80;;;;;;4974672;28;19911;-74
2022/11/03 12:50:36;;;;;;;;;;;17.60;96.20;;;;;;4975353;28;19910;-75
2022/11/03 12:53:03;;;;;;;;;;;17.60;96.70;;;;;;4978404;28;20618;-75
2022/11/03 12:55:35;;;;;;;;;;;17.70;96.70;;;;;;4954608;28;19915;-75
2022/11/03 12:58:02;;;;;;;;;;;17.80;96.90;;;;;;4953061;28;19982;-74
2022/11/03 13:00:27;;;;;;;;;;;17.80;97.00;;;;;;4951108;28;20695;-75
2022/11/03 13:02:53;;;;;;;;;;;17.80;97.10;;;;;;4973838;28;19911;-75
2022/11/03 13:05:18;;;;;;;;;;;17.80;97.30;;;;;;4966280;28;19922;-74
2022/11/03 13:07:44;;;;;;;;;;;17.80;97.40;;;;;;4952013;28;20005;-74
2022/11/03 13:10:09;;;;;;;;;;;17.60;98.00;;;;;;4951483;28;20490;-74
2022/11/03 13:12:37;;;;;;;;;;;17.50;98.40;;;;;;4950838;28;20029;-74
2022/11/03 13:15:05;;;;;;;;;;;17.60;98.60;;;;;;4951426;28;20001;-74
2022/11/03 13:17:30;;;;;;;;;;;17.50;98.80;;;;;;4953306;28;19929;-74
2022/11/03 13:19:56;;;;;;;;;;;17.50;99.00;;;;;;4973876;28;19910;-74
2022/11/03 13:22:21;;;;;;;;;;;17.50;99.40;;;;;;4974394;28;19910;-74
2022/11/03 13:24:47;;;;;;;;;;;17.50;99.70;;;;;;4965859;28;19927;-74
2022/11/03 13:27:19;;;;;;;;;;;17.40;99.90;;;;;;4951640;28;19937;-75
2022/11/03 13:29:47;;;;;;;;;;;17.40;99.90;;;;;;4951064;28;19915;-74
2022/11/03 13:32:19;;;;;;;;;;;17.40;99.90;;;;;;4951179;28;20033;-74
2022/11/03 13:34:50;;;;;;;;;;;17.40;99.90;;;;;;4951599;28;19930;-76
2022/11/03 13:37:16;;;;;;;;;;;17.30;99.90;;;;;;4951073;28;19915;-75
2022/11/03 13:39:43;;;;;;;;;;;17.30;99.90;;;;;;4950910;28;20004;-75
2022/11/03 13:42:14;;;;;;;;;;;17.30;99.90;;;;;;4950206;28;19918;-75
2022/11/03 13:44:41;;;;;;;;;;;17.20;99.90;;;;;;4950553;28;20019;-75
2022/11/03 13:47:13;;;;;;;;;;;17.20;99.90;;;;;;4952141;28;19918;-75
2022/11/03 13:49:43;;;;;;;;;;;17.20;99.90;;;;;;4965791;28;19914;-74
2022/11/03 13:52:09;;;;;;;;;;;17.20;99.90;;;;;;4950283;28;19973;-75
2022/11/03 13:54:37;;;;;;;;;;;17.10;99.90;;;;;;4951175;28;19957;-74
2022/11/03 13:57:03;;;;;;;;;;;17.00;99.90;;;;;;4966469;28;19953;-74
2022/11/03 13:59:28;;;;;;;;;;;16.90;99.90;;;;;;4965819;28;19950;-75
2022/11/03 14:01:55;;;;;;;;;;;17.00;99.90;;;;;;4970393;28;19911;-75
2022/11/03 14:04:20;;;;;;;;;;;16.90;99.90;;;;;;4950513;28;19930;-75
2022/11/03 14:06:46;;;;;;;;;;;17.00;99.90;;;;;;4951020;28;20296;-75
2022/11/03 14:09:14;;;;;;;;;;;17.00;99.90;;;;;;4950154;28;19960;-75
2022/11/03 14:14:28;;;;;;;;;;;16.80;99.90;;;;;;4951056;28;19929;-75
2022/11/03 14:17:01;;;;;;;;;;;16.80;99.90;;;;;;4975123;28;19982;-74
2022/11/03 14:19:28;;;;;;;;;;;16.70;99.90;;;;;;4966917;28;19965;-75
2022/11/03 14:21:53;;;;;;;;;;;16.70;99.90;;;;;;4950300;28;19978;-74
2022/11/03 14:24:18;;;;;;;;;;;16.70;99.90;;;;;;4951516;28;19922;-74
2022/11/03 14:26:45;;;;;;;;;;;16.50;99.90;;;;;;4950487;28;19965;-74
2022/11/03 14:29:18;;;;;;;;;;;16.50;99.90;;;;;;4950257;28;19921;-75
2022/11/03 14:31:51;;;;;;;;;;;16.50;99.90;;;;;;4949334;28;20028;-74
2022/11/03 14:34:17;;;;;;;;;;;16.50;99.90;;;;;;4949444;28;20324;-74
2022/11/03 14:36:42;;;;;;;;;;;16.40;99.90;;;;;;4950483;28;19926;-74
2022/11/03 14:39:13;;;;;;;;;;;16.50;99.90;;;;;;4974442;28;19919;-75
2022/11/03 14:44:23;;;;;;;;;;;16.40;99.90;;;;;;4948271;28;20006;-74
2022/11/03 14:46:48;;;;;;;;;;;16.30;99.90;;;;;;4972397;28;20013;-74